Time;durP1;ratioP1;P1;durP2;ratioP2;P2;SDS_P1;SDS_P2;PMS_P1;PMS_P2;Temp;Humidity;BMP_temperature;BMP_pressure;BME280_temperature;BME280_humidity;BME280_pressure;Samples;Min_cycle;Max_cycle;Signal;HPM_P1;HPM_P2
2022/12/03 00:03:17;;;;;;;;;;;;;;;2.17;90.77344;102678;;;;-75
2022/12/03 00:06:20;;;;;;;16.5;6.2;;;;;;;;;;;;;-75
2022/12/03 00:08:19;;;;;;;;;;;;;;;2.13;90.7666;102673.3;;;;-76
2022/12/03 00:13:17;;;;;;;;;;;;;;;2.11;90.92285;102668.9;;;;-77
2022/12/03 00:18:17;;;;;;;;;;;;;;;2.1;90.67383;102667.1;;;;-76
2022/12/03 00:23:19;;;;;;;;;;;;;;;2.1;90.73926;102663.4;;;;-75
2022/12/03 00:28:17;;;;;;;;;;;;;;;2.11;90.69531;102661.8;;;;-77
2022/12/03 00:33:18;;;;;;;;;;;;;;;2.13;90.69043;102663.2;;;;-75
2022/12/03 00:36:19;;;;;;;16;6.2;;;;;;;;;;;;;-76
2022/12/03 00:38:17;;;;;;;;;;;;;;;2.17;90.47266;102660.1;;;;-75
2022/12/03 00:43:18;;;;;;;;;;;;;;;2.19;90.60449;102652;;;;-75
2022/12/03 00:48:18;;;;;;;;;;;;;;;2.24;90.71191;102648.7;;;;-75
2022/12/03 00:53:20;;;;;;;;;;;;;;;2.28;90.89648;102644.5;;;;-75
2022/12/03 00:58:17;;;;;;;;;;;;;;;2.33;90.77637;102640.8;;;;-76
2022/12/03 01:03:17;;;;;;;;;;;;;;;2.36;90.70605;102642.6;;;;-75
2022/12/03 01:06:18;;;;;;;14.1;5.6;;;;;;;;;;;;;-75
2022/12/03 01:08:17;;;;;;;;;;;;;;;2.39;90.64648;102643.3;;;;-75
2022/12/03 01:13:17;;;;;;;;;;;;;;;2.42;90.68555;102638.9;;;;-75
2022/12/03 01:18:19;;;;;;;;;;;;;;;2.44;90.86426;102643.2;;;;-75
2022/12/03 01:23:17;;;;;;;;;;;;;;;2.48;90.78711;102641.3;;;;-75
2022/12/03 01:28:17;;;;;;;;;;;;;;;2.5;90.69141;102628.7;;;;-75
2022/12/03 01:33:17;;;;;;;;;;;;;;;2.54;90.70996;102621.4;;;;-75
2022/12/03 01:36:17;;;;;;;15.5;6;;;;;;;;;;;;;-76
2022/12/03 01:38:17;;;;;;;;;;;;;;;2.56;90.81348;102619;;;;-75
2022/12/03 01:43:17;;;;;;;;;;;;;;;2.58;90.71973;102614.5;;;;-75
2022/12/03 01:48:18;;;;;;;;;;;;;;;2.61;90.85547;102604.5;;;;-75
2022/12/03 01:53:19;;;;;;;;;;;;;;;2.65;90.83301;102603.4;;;;-75
2022/12/03 01:58:18;;;;;;;;;;;;;;;2.68;90.67578;102600.9;;;;-74
2022/12/03 02:03:19;;;;;;;;;;;;;;;2.7;90.83301;102596.1;;;;-75
2022/12/03 02:06:18;;;;;;;20.1;6.4;;;;;;;;;;;;;-76
2022/12/03 02:08:34;;;;;;;;;;;;;;;2.73;91.12012;102591.9;;;;-75
2022/12/03 02:13:17;;;;;;;;;;;;;;;2.74;91.14453;102592.3;;;;-75
2022/12/03 02:18:17;;;;;;;;;;;;;;;2.77;91.13867;102593.3;;;;-75
2022/12/03 02:23:25;;;;;;;;;;;;;;;2.79;91.15527;102589;;;;-75
2022/12/03 02:28:17;;;;;;;;;;;;;;;2.81;91.07129;102590.7;;;;-75
2022/12/03 02:33:17;;;;;;;;;;;;;;;2.85;91.05859;102590.4;;;;-74
2022/12/03 02:36:15;;;;;;;19.2;6.5;;;;;;;;;;;;;-75
2022/12/03 02:38:18;;;;;;;;;;;;;;;2.87;91.14941;102582.8;;;;-75
2022/12/03 02:43:18;;;;;;;;;;;;;;;2.9;91.16602;102578.2;;;;-75
2022/12/03 02:48:19;;;;;;;;;;;;;;;2.92;91.25684;102579.9;;;;-75
2022/12/03 02:53:20;;;;;;;;;;;;;;;2.94;91.48828;102577.3;;;;-74
2022/12/03 02:58:17;;;;;;;;;;;;;;;2.95;91.5332;102579.3;;;;-75
2022/12/03 03:03:19;;;;;;;;;;;;;;;2.97;91.49609;102581.3;;;;-76
2022/12/03 03:06:15;;;;;;;19.1;6.7;;;;;;;;;;;;;-76
2022/12/03 03:08:18;;;;;;;;;;;;;;;2.99;91.41309;102568.5;;;;-75
2022/12/03 03:13:18;;;;;;;;;;;;;;;3.01;91.31934;102567.2;;;;-75
2022/12/03 03:18:18;;;;;;;;;;;;;;;3.02;91.35352;102568.2;;;;-76
2022/12/03 03:23:21;;;;;;;;;;;;;;;3.02;91.55078;102568.5;;;;-74
2022/12/03 03:28:17;;;;;;;;;;;;;;;3.03;91.49805;102554.6;;;;-76
2022/12/03 03:33:18;;;;;;;;;;;;;;;3.04;91.29199;102551.2;;;;-74
2022/12/03 03:36:15;;;;;;;16;6.2;;;;;;;;;;;;;-74
2022/12/03 03:38:17;;;;;;;;;;;;;;;3.05;91.15527;102559;;;;-76
2022/12/03 03:43:17;;;;;;;;;;;;;;;3.04;90.85938;102553.1;;;;-75
2022/12/03 03:48:18;;;;;;;;;;;;;;;3.03;91.2168;102551.1;;;;-75
2022/12/03 03:53:18;;;;;;;;;;;;;;;3.03;90.96777;102545.1;;;;-75
2022/12/03 03:58:17;;;;;;;;;;;;;;;3.02;91.24707;102533.8;;;;-75
2022/12/03 04:03:17;;;;;;;;;;;;;;;3.03;91.30371;102534.3;;;;-75
2022/12/03 04:06:13;;;;;;;20.8;7.2;;;;;;;;;;;;;-76
2022/12/03 04:08:17;;;;;;;;;;;;;;;3;91.00488;102528.6;;;;-75
2022/12/03 04:13:17;;;;;;;;;;;;;;;3;90.91797;102528.2;;;;-76
2022/12/03 04:23:17;;;;;;;;;;;;;;;2.98;90.50098;102528.9;;;;-75
2022/12/03 04:36:12;;;;;;;16.4;7.1;;;;;;;;;;;;;-75
2022/12/03 04:38:18;;;;;;;;;;;;;;;2.98;90.34863;102522.7;;;;-76
2022/12/03 04:43:17;;;;;;;;;;;;;;;2.98;90.16504;102518.5;;;;-76
2022/12/03 04:48:17;;;;;;;;;;;;;;;2.98;89.89355;102510.1;;;;-75
2022/12/03 04:53:17;;;;;;;;;;;;;;;2.97;90.06543;102513.3;;;;-75
2022/12/03 04:58:17;;;;;;;;;;;;;;;2.96;89.81445;102506.3;;;;-74
2022/12/03 05:03:17;;;;;;;;;;;;;;;2.95;89.83594;102503.5;;;;-75
2022/12/03 05:06:11;;;;;;;19.4;7.4;;;;;;;;;;;;;-76
2022/12/03 05:08:18;;;;;;;;;;;;;;;2.95;90.3125;102508.1;;;;-76
2022/12/03 05:13:17;;;;;;;;;;;;;;;2.94;89.81055;102510.6;;;;-74
2022/12/03 05:18:17;;;;;;;;;;;;;;;2.94;90.16602;102508;;;;-75
2022/12/03 05:23:17;;;;;;;;;;;;;;;2.95;89.89844;102508.3;;;;-77
2022/12/03 05:28:17;;;;;;;;;;;;;;;2.95;89.75586;102496.5;;;;-74
2022/12/03 05:33:17;;;;;;;;;;;;;;;2.94;90.00488;102495.1;;;;-76
2022/12/03 05:36:10;;;;;;;19.8;7.5;;;;;;;;;;;;;-75
2022/12/03 05:38:17;;;;;;;;;;;;;;;2.93;90.03613;102492.4;;;;-75
2022/12/03 05:43:17;;;;;;;;;;;;;;;2.93;89.90625;102488.3;;;;-75
2022/12/03 05:48:18;;;;;;;;;;;;;;;2.91;90.20313;102488.8;;;;-75
2022/12/03 05:53:18;;;;;;;;;;;;;;;2.89;89.6709;102483.8;;;;-75
2022/12/03 05:58:18;;;;;;;;;;;;;;;2.89;89.64746;102482.4;;;;-75
2022/12/03 06:03:17;;;;;;;;;;;;;;;2.89;89.625;102478.5;;;;-76
2022/12/03 06:06:09;;;;;;;19.3;7.8;;;;;;;;;;;;;-75
2022/12/03 06:08:17;;;;;;;;;;;;;;;2.9;89.42383;102476.9;;;;-75
2022/12/03 06:13:19;;;;;;;;;;;;;;;2.9;89.8877;102479.2;;;;-74
2022/12/03 06:18:17;;;;;;;;;;;;;;;2.89;89.59277;102472.4;;;;-76
2022/12/03 06:23:17;;;;;;;;;;;;;;;2.9;89.69238;102470.3;;;;-75
2022/12/03 06:28:17;;;;;;;;;;;;;;;2.88;89.70996;102463.9;;;;-75
2022/12/03 06:33:21;;;;;;;;;;;;;;;2.89;89.83105;102468.2;;;;-75
2022/12/03 06:36:09;;;;;;;18.8;7.1;;;;;;;;;;;;;-75
2022/12/03 06:38:18;;;;;;;;;;;;;;;2.88;89.78613;102460.2;;;;-76
2022/12/03 06:43:18;;;;;;;;;;;;;;;2.88;89.78613;102455.3;;;;-75
2022/12/03 06:48:17;;;;;;;;;;;;;;;2.86;89.81543;102450.6;;;;-75
2022/12/03 06:53:17;;;;;;;;;;;;;;;2.86;89.66309;102450.1;;;;-75
2022/12/03 06:58:26;;;;;;;;;;;;;;;2.85;89.58594;102463.6;;;;-76
2022/12/03 07:03:17;;;;;;;;;;;;;;;2.84;89.625;102460.2;;;;-75
2022/12/03 07:06:07;;;;;;;19.7;7.4;;;;;;;;;;;;;-75
2022/12/03 07:08:19;;;;;;;;;;;;;;;2.83;89.83105;102460.8;;;;-75
2022/12/03 07:13:17;;;;;;;;;;;;;;;2.84;89.83105;102462;;;;-75
2022/12/03 07:18:17;;;;;;;;;;;;;;;2.83;89.57129;102465.6;;;;-76
2022/12/03 07:23:17;;;;;;;;;;;;;;;2.83;89.72266;102464.9;;;;-75
2022/12/03 07:28:17;;;;;;;;;;;;;;;2.82;89.53418;102472.9;;;;-75
2022/12/03 07:33:17;;;;;;;;;;;;;;;2.82;89.30664;102467.1;;;;-75
2022/12/03 07:36:06;;;;;;;20.6;8.1;;;;;;;;;;;;;-75
2022/12/03 07:38:17;;;;;;;;;;;;;;;2.8;89.29199;102479.5;;;;-75
2022/12/03 07:43:18;;;;;;;;;;;;;;;2.8;89.30469;102475.6;;;;-74
2022/12/03 07:48:17;;;;;;;;;;;;;;;2.79;89.2041;102475.9;;;;-76
2022/12/03 07:53:17;;;;;;;;;;;;;;;2.78;89.03906;102475;;;;-76
2022/12/03 07:58:17;;;;;;;;;;;;;;;2.78;89.24512;102473.7;;;;-74
2022/12/03 08:03:19;;;;;;;;;;;;;;;2.77;89.18066;102470.1;;;;-77
2022/12/03 08:06:05;;;;;;;16.6;7.6;;;;;;;;;;;;;-74
2022/12/03 08:08:17;;;;;;;;;;;;;;;2.78;89.03906;102460.4;;;;-75
2022/12/03 08:13:18;;;;;;;;;;;;;;;2.77;89.25391;102458.5;;;;-75
2022/12/03 08:18:19;;;;;;;;;;;;;;;2.76;89.54492;102457.6;;;;-75
2022/12/03 08:23:19;;;;;;;;;;;;;;;2.79;89.30176;102449.6;;;;-74
2022/12/03 08:28:21;;;;;;;;;;;;;;;2.79;89.44238;102449;;;;-75
2022/12/03 08:33:23;;;;;;;;;;;;;;;2.8;89.42188;102447.9;;;;-76
2022/12/03 08:36:08;;;;;;;17.4;7.8;;;;;;;;;;;;;-75
2022/12/03 08:38:17;;;;;;;;;;;;;;;2.8;89.30273;102447.3;;;;-75
2022/12/03 08:43:21;;;;;;;;;;;;;;;2.79;89.27051;102447.8;;;;-75
2022/12/03 08:48:25;;;;;;;;;;;;;;;2.81;89.38086;102445.1;;;;-75
2022/12/03 08:53:24;;;;;;;;;;;;;;;2.83;89.45117;102445.1;;;;-75
2022/12/03 08:58:24;;;;;;;;;;;;;;;2.87;89.26172;102441.4;;;;-75
2022/12/03 09:03:19;;;;;;;;;;;;;;;2.9;89.47754;102439.7;;;;-76
2022/12/03 09:06:03;;;;;;;20.4;8.3;;;;;;;;;;;;;-76
2022/12/03 09:08:17;;;;;;;;;;;;;;;2.93;89.33105;102444.8;;;;-75
2022/12/03 09:13:17;;;;;;;;;;;;;;;2.95;89.59766;102445.6;;;;-75
2022/12/03 09:18:17;;;;;;;;;;;;;;;2.97;89.6748;102445.3;;;;-75
2022/12/03 09:23:17;;;;;;;;;;;;;;;2.99;89.60254;102443.6;;;;-75
2022/12/03 09:28:17;;;;;;;;;;;;;;;3.01;89.80176;102443.8;;;;-76
2022/12/03 09:33:17;;;;;;;;;;;;;;;3.03;89.66699;102440.6;;;;-75
2022/12/03 09:36:02;;;;;;;22.2;8.9;;;;;;;;;;;;;-76
2022/12/03 09:38:17;;;;;;;;;;;;;;;3.07;89.79395;102448;;;;-76
2022/12/03 09:43:17;;;;;;;;;;;;;;;3.09;89.56934;102439;;;;-74
2022/12/03 09:48:17;;;;;;;;;;;;;;;3.11;89.73633;102436;;;;-75
2022/12/03 09:53:19;;;;;;;;;;;;;;;3.12;89.87012;102438.7;;;;-74
2022/12/03 09:58:19;;;;;;;;;;;;;;;3.14;89.19043;102444.9;;;;-75
2022/12/03 10:03:18;;;;;;;;;;;;;;;3.14;89.53809;102442.9;;;;-75
2022/12/03 10:06:02;;;;;;;23.9;10.1;;;;;;;;;;;;;-75
2022/12/03 10:08:20;;;;;;;;;;;;;;;3.16;89.68262;102437.7;;;;-74
2022/12/03 10:13:22;;;;;;;;;;;;;;;3.19;89.59961;102435;;;;-76
2022/12/03 10:18:19;;;;;;;;;;;;;;;3.2;89.4209;102433.6;;;;-75
2022/12/03 10:23:26;;;;;;;;;;;;;;;3.22;89.80176;102431.2;;;;-76
2022/12/03 10:28:27;;;;;;;;;;;;;;;3.24;89.67773;102430.9;;;;-76
2022/12/03 10:33:18;;;;;;;;;;;;;;;3.26;89.27832;102422.2;;;;-75
2022/12/03 10:36:11;;;;;;;29.7;10.5;;;;;;;;;;;;;-75
2022/12/03 10:38:25;;;;;;;;;;;;;;;3.25;89.50586;102424.1;;;;-75
2022/12/03 10:43:23;;;;;;;;;;;;;;;3.26;89.16992;102412;;;;-75
2022/12/03 10:48:18;;;;;;;;;;;;;;;3.26;89.21484;102402;;;;-74
2022/12/03 10:53:17;;;;;;;;;;;;;;;3.27;89.25;102400.9;;;;-76
2022/12/03 10:58:22;;;;;;;;;;;;;;;3.28;89.16504;102402.3;;;;-79
2022/12/03 11:03:20;;;;;;;;;;;;;;;3.26;88.55273;102396;;;;-76
2022/12/03 11:06:00;;;;;;;26.4;10.3;;;;;;;;;;;;;-75
2022/12/03 11:08:25;;;;;;;;;;;;;;;3.26;88.98535;102401.1;;;;-74
2022/12/03 11:13:28;;;;;;;;;;;;;;;3.28;88.66602;102389.6;;;;-75
2022/12/03 11:18:27;;;;;;;;;;;;;;;3.27;88.40332;102388.8;;;;-75
2022/12/03 11:23:17;;;;;;;;;;;;;;;3.26;88.7793;102389.8;;;;-74
2022/12/03 11:28:28;;;;;;;;;;;;;;;3.25;88.50781;102372.7;;;;-73
2022/12/03 11:33:27;;;;;;;;;;;;;;;3.26;88.37793;102372.7;;;;-74
2022/12/03 11:36:11;;;;;;;26;9.8;;;;;;;;;;;;;-75
2022/12/03 11:38:31;;;;;;;;;;;;;;;3.24;88.49316;102365.5;;;;-74
2022/12/03 11:43:17;;;;;;;;;;;;;;;3.24;88.55859;102364.9;;;;-75
2022/12/03 11:48:17;;;;;;;;;;;;;;;3.24;88.53711;102357;;;;-75
2022/12/03 11:53:23;;;;;;;;;;;;;;;3.23;88.56934;102355.9;;;;-75
2022/12/03 11:58:21;;;;;;;;;;;;;;;3.24;88.22168;102350.2;;;;-74
2022/12/03 12:03:26;;;;;;;;;;;;;;;3.24;87.8877;102346.7;;;;-73
2022/12/03 12:06:09;;;;;;;24.2;9.6;;;;;;;;;;;;;-76
2022/12/03 12:08:21;;;;;;;;;;;;;;;3.23;88.28711;102338.5;;;;-75
2022/12/03 12:13:28;;;;;;;;;;;;;;;3.24;88.27637;102339.8;;;;-75
2022/12/03 12:18:28;;;;;;;;;;;;;;;3.25;87.62891;102332.9;;;;-76
2022/12/03 12:23:28;;;;;;;;;;;;;;;3.25;88.21484;102324.5;;;;-76
2022/12/03 12:28:19;;;;;;;;;;;;;;;3.24;88.37598;102319.6;;;;-75
2022/12/03 12:33:21;;;;;;;;;;;;;;;3.24;87.96191;102314;;;;-75
2022/12/03 12:35:58;;;;;;;23.5;9.1;;;;;;;;;;;;;-74
2022/12/03 12:38:20;;;;;;;;;;;;;;;3.23;87.67969;102311.6;;;;-75
2022/12/03 12:43:20;;;;;;;;;;;;;;;3.21;88.25098;102306.9;;;;-75
2022/12/03 12:48:23;;;;;;;;;;;;;;;3.21;88.12109;102305.4;;;;-75
2022/12/03 12:53:23;;;;;;;;;;;;;;;3.21;88.08594;102313.5;;;;-74
2022/12/03 12:58:19;;;;;;;;;;;;;;;3.18;88.00488;102309.7;;;;-75
2022/12/03 13:03:19;;;;;;;;;;;;;;;3.15;87.3916;102307.2;;;;-74
2022/12/03 13:05:58;;;;;;;26.8;9.4;;;;;;;;;;;;;-75
2022/12/03 13:08:23;;;;;;;;;;;;;;;3.13;87.90918;102308;;;;-75
2022/12/03 13:13:25;;;;;;;;;;;;;;;3.11;88.0332;102297.4;;;;-74
2022/12/03 13:18:37;;;;;;;;;;;;;;;3.08;88.2334;102295.2;;;;-76
2022/12/03 13:23:25;;;;;;;;;;;;;;;3.08;88.21191;102293.3;;;;-74
2022/12/03 13:28:17;;;;;;;;;;;;;;;3.05;87.69824;102288;;;;-75
2022/12/03 13:33:25;;;;;;;;;;;;;;;3.02;87.85352;102277.2;;;;-75
2022/12/03 13:35:56;;;;;;;24.9;8.8;;;;;;;;;;;;;-77
2022/12/03 13:38:19;;;;;;;;;;;;;;;2.99;87.72754;102271.1;;;;-75
2022/12/03 13:43:18;;;;;;;;;;;;;;;2.96;87.84082;102269.6;;;;-76
2022/12/03 13:48:23;;;;;;;;;;;;;;;2.94;87.29492;102271;;;;-76
2022/12/03 13:53:23;;;;;;;;;;;;;;;2.9;87.6543;102268.8;;;;-75
2022/12/03 13:58:17;;;;;;;;;;;;;;;2.87;87.61426;102263.3;;;;-76
2022/12/03 14:03:18;;;;;;;;;;;;;;;2.84;87.95801;102258;;;;-75
2022/12/03 14:05:55;;;;;;;23;9.3;;;;;;;;;;;;;-75
2022/12/03 14:08:18;;;;;;;;;;;;;;;2.82;87.9209;102252.4;;;;-75
2022/12/03 14:13:17;;;;;;;;;;;;;;;2.79;87.94629;102252.4;;;;-75
2022/12/03 14:18:17;;;;;;;;;;;;;;;2.77;87.80176;102246.9;;;;-75
2022/12/03 14:23:17;;;;;;;;;;;;;;;2.75;87.83105;102245.5;;;;-75
2022/12/03 14:28:17;;;;;;;;;;;;;;;2.71;87.84473;102246.3;;;;-77
2022/12/03 14:33:17;;;;;;;;;;;;;;;2.69;87.71973;102252.3;;;;-75
2022/12/03 14:35:56;;;;;;;28.3;9.8;;;;;;;;;;;;;-75
2022/12/03 14:38:17;;;;;;;;;;;;;;;2.64;87.81738;102245.2;;;;-73
2022/12/03 14:43:17;;;;;;;;;;;;;;;2.6;87.73438;102240;;;;-75
2022/12/03 14:48:17;;;;;;;;;;;;;;;2.56;87.58594;102239.1;;;;-75
2022/12/03 14:53:17;;;;;;;;;;;;;;;2.5;87.48828;102233;;;;-76
2022/12/03 14:58:18;;;;;;;;;;;;;;;2.49;87.68066;102226.2;;;;-76
2022/12/03 15:03:18;;;;;;;;;;;;;;;2.47;87.74023;102228.1;;;;-75
2022/12/03 15:05:59;;;;;;;27.3;9.5;;;;;;;;;;;;;-75
2022/12/03 15:08:18;;;;;;;;;;;;;;;2.44;87.79785;102224.9;;;;-74
2022/12/03 15:13:18;;;;;;;;;;;;;;;2.44;87.62695;102215.4;;;;-74
2022/12/03 15:18:17;;;;;;;;;;;;;;;2.39;87.7998;102214.3;;;;-73
2022/12/03 15:23:17;;;;;;;;;;;;;;;2.37;87.74219;102221.5;;;;-75
2022/12/03 15:28:20;;;;;;;;;;;;;;;2.35;87.6748;102221.8;;;;-75
2022/12/03 15:33:18;;;;;;;;;;;;;;;2.31;87.84961;102220.4;;;;-75
2022/12/03 15:35:56;;;;;;;23.4;9.1;;;;;;;;;;;;;-77
2022/12/03 15:38:18;;;;;;;;;;;;;;;2.3;87.93457;102217.7;;;;-75
2022/12/03 15:43:17;;;;;;;;;;;;;;;2.28;87.99414;102230.4;;;;-76
2022/12/03 15:48:17;;;;;;;;;;;;;;;2.26;87.86035;102225.3;;;;-77
2022/12/03 15:53:21;;;;;;;;;;;;;;;2.21;87.52637;102239.1;;;;-75
2022/12/03 15:58:17;;;;;;;;;;;;;;;2.18;87.55273;102238.7;;;;-76
2022/12/03 16:03:17;;;;;;;;;;;;;;;2.16;87.27637;102237;;;;-74
2022/12/03 16:05:53;;;;;;;24.8;9.7;;;;;;;;;;;;;-75
2022/12/03 16:08:18;;;;;;;;;;;;;;;2.12;87.45313;102237.1;;;;-74
2022/12/03 16:13:17;;;;;;;;;;;;;;;2.09;87.4248;102233.2;;;;-74
2022/12/03 16:18:17;;;;;;;;;;;;;;;2.04;87.6748;102234.9;;;;-74
2022/12/03 16:23:17;;;;;;;;;;;;;;;2.01;87.44043;102228.4;;;;-74
2022/12/03 16:28:18;;;;;;;;;;;;;;;1.99;87.1875;102228.8;;;;-75
2022/12/03 16:33:17;;;;;;;;;;;;;;;1.97;87.31543;102230.1;;;;-75
2022/12/03 16:35:50;;;;;;;28.3;10;;;;;;;;;;;;;-75
2022/12/03 16:38:17;;;;;;;;;;;;;;;1.94;87.43848;102229.2;;;;-75
2022/12/03 16:43:17;;;;;;;;;;;;;;;1.94;87.27539;102229;;;;-75
2022/12/03 16:48:18;;;;;;;;;;;;;;;1.92;87.3584;102231.1;;;;-75
2022/12/03 16:53:17;;;;;;;;;;;;;;;1.92;87.35645;102233.7;;;;-75
2022/12/03 16:58:17;;;;;;;;;;;;;;;1.88;87.36035;102233.4;;;;-75
2022/12/03 17:03:17;;;;;;;;;;;;;;;1.85;86.91113;102232.9;;;;-74
2022/12/03 17:05:49;;;;;;;28.4;9.8;;;;;;;;;;;;;-74
2022/12/03 17:08:17;;;;;;;;;;;;;;;1.83;87.2207;102224.4;;;;-74
2022/12/03 17:13:17;;;;;;;;;;;;;;;1.83;87.19922;102219.6;;;;-73
2022/12/03 17:18:17;;;;;;;;;;;;;;;1.8;87.20508;102219.1;;;;-75
2022/12/03 17:23:17;;;;;;;;;;;;;;;1.81;87.19531;102226.7;;;;-76
2022/12/03 17:28:17;;;;;;;;;;;;;;;1.78;87.31836;102226.5;;;;-75
2022/12/03 17:33:17;;;;;;;;;;;;;;;1.78;87.1582;102225;;;;-74
2022/12/03 17:35:48;;;;;;;29.5;10.9;;;;;;;;;;;;;-75
2022/12/03 17:38:17;;;;;;;;;;;;;;;1.77;87.18848;102224;;;;-75
2022/12/03 17:43:17;;;;;;;;;;;;;;;1.74;87.27832;102220.1;;;;-75
2022/12/03 17:48:17;;;;;;;;;;;;;;;1.73;87.21191;102217.1;;;;-75
2022/12/03 17:53:17;;;;;;;;;;;;;;;1.72;87.22949;102225.4;;;;-75
2022/12/03 17:58:17;;;;;;;;;;;;;;;1.7;87;102221;;;;-75
2022/12/03 18:03:17;;;;;;;;;;;;;;;1.68;87.31934;102220.1;;;;-75
2022/12/03 18:05:46;;;;;;;29.5;10.6;;;;;;;;;;;;;-75
2022/12/03 18:08:17;;;;;;;;;;;;;;;1.68;87.21289;102219.7;;;;-75
2022/12/03 18:13:17;;;;;;;;;;;;;;;1.63;87.06152;102218.1;;;;-75
2022/12/03 18:18:17;;;;;;;;;;;;;;;1.62;86.91895;102217.9;;;;-75
2022/12/03 18:23:18;;;;;;;;;;;;;;;1.59;86.92188;102225;;;;-74
2022/12/03 18:28:18;;;;;;;;;;;;;;;1.55;86.86133;102209.5;;;;-74
2022/12/03 18:33:20;;;;;;;;;;;;;;;1.54;86.83789;102203.9;;;;-75
2022/12/03 18:35:47;;;;;;;32.3;10.1;;;;;;;;;;;;;-75
2022/12/03 18:38:19;;;;;;;;;;;;;;;1.52;86.87695;102206.3;;;;-74
2022/12/03 18:43:19;;;;;;;;;;;;;;;1.49;86.82813;102195.8;;;;-75
2022/12/03 18:48:18;;;;;;;;;;;;;;;1.46;86.61523;102193;;;;-75
2022/12/03 18:53:18;;;;;;;;;;;;;;;1.44;86.64453;102192;;;;-76
2022/12/03 18:58:18;;;;;;;;;;;;;;;1.41;86.71484;102189.4;;;;-75
2022/12/03 19:03:17;;;;;;;;;;;;;;;1.39;86.49316;102188.3;;;;-75
2022/12/03 19:05:44;;;;;;;27.2;10;;;;;;;;;;;;;-74
2022/12/03 19:08:19;;;;;;;;;;;;;;;1.38;86.60938;102183.7;;;;-75
2022/12/03 19:13:19;;;;;;;;;;;;;;;1.34;86.47266;102182.1;;;;-75
2022/12/03 19:18:17;;;;;;;;;;;;;;;1.34;86.57031;102177.7;;;;-75
2022/12/03 19:23:17;;;;;;;;;;;;;;;1.29;86.62402;102185.4;;;;-76
2022/12/03 19:28:17;;;;;;;;;;;;;;;1.3;86.50684;102182.1;;;;-75
2022/12/03 19:33:17;;;;;;;;;;;;;;;1.27;86.56641;102181.4;;;;-75
2022/12/03 19:35:45;;;;;;;24.3;9.1;;;;;;;;;;;;;-76
2022/12/03 19:38:17;;;;;;;;;;;;;;;1.23;86.22363;102172.8;;;;-76
2022/12/03 19:43:17;;;;;;;;;;;;;;;1.21;86.24219;102175.5;;;;-75
2022/12/03 19:48:17;;;;;;;;;;;;;;;1.2;86.35742;102179.3;;;;-75
2022/12/03 19:53:17;;;;;;;;;;;;;;;1.19;86.21484;102185;;;;-74
2022/12/03 19:58:17;;;;;;;;;;;;;;;1.14;86.48633;102186.3;;;;-77
2022/12/03 20:03:20;;;;;;;;;;;;;;;1.14;86.31348;102190.1;;;;-75
2022/12/03 20:05:43;;;;;;;24.8;8.5;;;;;;;;;;;;;-75
2022/12/03 20:08:17;;;;;;;;;;;;;;;1.14;86.36719;102180.6;;;;-74
2022/12/03 20:13:17;;;;;;;;;;;;;;;1.11;86.36035;102175.3;;;;-74
2022/12/03 20:18:17;;;;;;;;;;;;;;;1.1;86.32813;102173.8;;;;-74
2022/12/03 20:23:17;;;;;;;;;;;;;;;1.1;86.33691;102168.8;;;;-75
2022/12/03 20:28:17;;;;;;;;;;;;;;;1.09;86.25977;102162.9;;;;-75
2022/12/03 20:33:17;;;;;;;;;;;;;;;1.07;86.27734;102166.8;;;;-74
2022/12/03 20:35:40;;;;;;;22.3;8;;;;;;;;;;;;;-76
2022/12/03 20:38:17;;;;;;;;;;;;;;;1.07;86.34375;102163.1;;;;-75
2022/12/03 20:43:17;;;;;;;;;;;;;;;1.1;86.37109;102154.2;;;;-75
2022/12/03 20:48:17;;;;;;;;;;;;;;;1.08;86.45215;102155.9;;;;-75
2022/12/03 20:53:17;;;;;;;;;;;;;;;1.1;86.55273;102149.3;;;;-75
2022/12/03 20:58:17;;;;;;;;;;;;;;;1.09;86.54004;102153.9;;;;-75
2022/12/03 21:03:17;;;;;;;;;;;;;;;1.09;86.37793;102153.1;;;;-76
2022/12/03 21:05:39;;;;;;;23;7.6;;;;;;;;;;;;;-75
2022/12/03 21:08:17;;;;;;;;;;;;;;;1.09;86.51855;102150.8;;;;-75
2022/12/03 21:13:21;;;;;;;;;;;;;;;1.11;86.31836;102144.8;;;;-75
2022/12/03 21:18:18;;;;;;;;;;;;;;;1.07;86.47168;102140.9;;;;-75
2022/12/03 21:23:17;;;;;;;;;;;;;;;1.05;86.53418;102142.3;;;;-75
2022/12/03 21:28:18;;;;;;;;;;;;;;;1.04;86.56348;102138.3;;;;-75
2022/12/03 21:33:17;;;;;;;;;;;;;;;1.05;86.58691;102137;;;;-75
2022/12/03 21:35:38;;;;;;;23.3;7.9;;;;;;;;;;;;;-75
2022/12/03 21:38:17;;;;;;;;;;;;;;;1.04;86.49805;102136.2;;;;-75
2022/12/03 21:43:17;;;;;;;;;;;;;;;1.03;86.62598;102129.4;;;;-75
2022/12/03 21:48:17;;;;;;;;;;;;;;;1.05;86.55469;102126.3;;;;-76
2022/12/03 21:53:17;;;;;;;;;;;;;;;1.02;86.5166;102126.4;;;;-76
2022/12/03 21:58:17;;;;;;;;;;;;;;;1.01;86.60156;102123;;;;-74
2022/12/03 22:03:17;;;;;;;;;;;;;;;0.99;86.6084;102131.6;;;;-74
2022/12/03 22:05:40;;;;;;;21.3;8.3;;;;;;;;;;;;;-75
2022/12/03 22:08:17;;;;;;;;;;;;;;;1;86.43555;102127.5;;;;-74
2022/12/03 22:13:17;;;;;;;;;;;;;;;1.01;86.36133;102124.3;;;;-75
2022/12/03 22:18:17;;;;;;;;;;;;;;;0.98;86.42285;102125.1;;;;-74
2022/12/03 22:23:17;;;;;;;;;;;;;;;0.99;86.55273;102123.7;;;;-75
2022/12/03 22:28:17;;;;;;;;;;;;;;;0.97;86.67871;102118;;;;-76
2022/12/03 22:33:17;;;;;;;;;;;;;;;0.97;86.58105;102123.7;;;;-78
2022/12/03 22:35:36;;;;;;;22.3;8.5;;;;;;;;;;;;;-75
2022/12/03 22:38:17;;;;;;;;;;;;;;;0.99;86.49805;102117.7;;;;-74
2022/12/03 22:43:17;;;;;;;;;;;;;;;0.96;86.60254;102112.8;;;;-75
2022/12/03 22:48:17;;;;;;;;;;;;;;;0.98;86.57227;102113.5;;;;-75
2022/12/03 22:53:17;;;;;;;;;;;;;;;0.99;86.58496;102110.5;;;;-75
2022/12/03 22:58:17;;;;;;;;;;;;;;;0.97;86.57031;102121.7;;;;-75
2022/12/03 23:03:17;;;;;;;;;;;;;;;0.95;86.5791;102115.3;;;;-75
2022/12/03 23:05:38;;;;;;;22.2;8.3;;;;;;;;;;;;;-75
2022/12/03 23:08:18;;;;;;;;;;;;;;;0.94;86.58594;102119.4;;;;-75
2022/12/03 23:13:17;;;;;;;;;;;;;;;0.95;86.46973;102123.2;;;;-75
2022/12/03 23:18:17;;;;;;;;;;;;;;;0.93;86.4873;102125.9;;;;-74
2022/12/03 23:23:17;;;;;;;;;;;;;;;0.94;86.65137;102126.8;;;;-76
2022/12/03 23:28:17;;;;;;;;;;;;;;;0.92;86.61328;102116.9;;;;-75
2022/12/03 23:33:17;;;;;;;;;;;;;;;0.92;86.7207;102120;;;;-75
2022/12/03 23:35:34;;;;;;;23.3;8.4;;;;;;;;;;;;;-75
2022/12/03 23:38:17;;;;;;;;;;;;;;;0.91;86.70996;102116.2;;;;-74
2022/12/03 23:43:17;;;;;;;;;;;;;;;0.92;86.58105;102114.9;;;;-74
2022/12/03 23:48:17;;;;;;;;;;;;;;;0.92;86.79688;102117.7;;;;-75
2022/12/03 23:53:17;;;;;;;;;;;;;;;0.92;86.77539;102117.2;;;;-74
2022/12/03 23:58:17;;;;;;;;;;;;;;;0.91;86.73145;102110.8;;;;-74
